sensor_id;sensor_type;location;lat;lon;timestamp;temperature;humidity
78767;SHT31;68092;51.982;5.680;2023-02-23T00:02:34;12.4;65.6
78767;SHT31;68092;51.982;5.680;2023-02-23T00:05:04;12.4;65.4
78767;SHT31;68092;51.982;5.680;2023-02-23T00:07:34;12.4;65.3
78767;SHT31;68092;51.982;5.680;2023-02-23T00:10:04;12.4;65.3
78767;SHT31;68092;51.982;5.680;2023-02-23T00:12:37;12.4;65.3
78767;SHT31;68092;51.982;5.680;2023-02-23T00:15:08;12.4;65.3
78767;SHT31;68092;51.982;5.680;2023-02-23T00:17:41;12.4;65.2
78767;SHT31;68092;51.982;5.680;2023-02-23T00:20:11;12.4;65.1
78767;SHT31;68092;51.982;5.680;2023-02-23T00:22:43;12.4;65.2
78767;SHT31;68092;51.982;5.680;2023-02-23T00:25:12;12.4;65.1
78767;SHT31;68092;51.982;5.680;2023-02-23T00:27:44;12.4;65.0
78767;SHT31;68092;51.982;5.680;2023-02-23T00:30:20;12.4;65.1
78767;SHT31;68092;51.982;5.680;2023-02-23T00:32:51;12.4;65.1
78767;SHT31;68092;51.982;5.680;2023-02-23T00:35:21;12.4;65.1
78767;SHT31;68092;51.982;5.680;2023-02-23T00:37:51;12.4;65.1
78767;SHT31;68092;51.982;5.680;2023-02-23T00:40:23;12.4;65.2
78767;SHT31;68092;51.982;5.680;2023-02-23T00:42:53;12.4;65.2
78767;SHT31;68092;51.982;5.680;2023-02-23T00:45:26;12.3;65.1
78767;SHT31;68092;51.982;5.680;2023-02-23T00:47:58;12.3;65.2
78767;SHT31;68092;51.982;5.680;2023-02-23T00:50:30;12.3;65.4
78767;SHT31;68092;51.982;5.680;2023-02-23T00:53:01;12.3;65.4
78767;SHT31;68092;51.982;5.680;2023-02-23T00:55:31;12.3;65.5
78767;SHT31;68092;51.982;5.680;2023-02-23T00:58:00;12.3;65.5
78767;SHT31;68092;51.982;5.680;2023-02-23T01:00:31;12.3;65.6
78767;SHT31;68092;51.982;5.680;2023-02-23T01:03:06;12.3;65.8
78767;SHT31;68092;51.982;5.680;2023-02-23T01:05:36;12.3;65.8
78767;SHT31;68092;51.982;5.680;2023-02-23T01:08:06;12.2;65.8
78767;SHT31;68092;51.982;5.680;2023-02-23T01:10:41;12.2;65.8
78767;SHT31;68092;51.982;5.680;2023-02-23T01:13:11;12.2;65.8
78767;SHT31;68092;51.982;5.680;2023-02-23T01:15:44;12.2;65.7
78767;SHT31;68092;51.982;5.680;2023-02-23T01:18:15;12.2;65.9
78767;SHT31;68092;51.982;5.680;2023-02-23T01:20:45;12.2;65.8
78767;SHT31;68092;51.982;5.680;2023-02-23T01:23:27;12.2;65.7
78767;SHT31;68092;51.982;5.680;2023-02-23T01:25:57;12.2;65.7
78767;SHT31;68092;51.982;5.680;2023-02-23T01:28:27;12.2;65.7
78767;SHT31;68092;51.982;5.680;2023-02-23T01:30:56;12.2;65.8
78767;SHT31;68092;51.982;5.680;2023-02-23T01:33:26;12.2;65.8
78767;SHT31;68092;51.982;5.680;2023-02-23T01:36:08;12.2;65.8
78767;SHT31;68092;51.982;5.680;2023-02-23T01:38:40;12.2;65.7
78767;SHT31;68092;51.982;5.680;2023-02-23T01:41:12;12.3;65.6
78767;SHT31;68092;51.982;5.680;2023-02-23T01:43:57;12.3;65.8
78767;SHT31;68092;51.982;5.680;2023-02-23T01:46:27;12.3;65.8
78767;SHT31;68092;51.982;5.680;2023-02-23T01:49:00;12.3;65.8
78767;SHT31;68092;51.982;5.680;2023-02-23T01:51:35;12.3;65.8
78767;SHT31;68092;51.982;5.680;2023-02-23T01:54:10;12.3;65.8
78767;SHT31;68092;51.982;5.680;2023-02-23T01:56:45;12.3;65.7
78767;SHT31;68092;51.982;5.680;2023-02-23T01:59:21;12.3;65.7
78767;SHT31;68092;51.982;5.680;2023-02-23T02:01:51;12.3;65.7
78767;SHT31;68092;51.982;5.680;2023-02-23T02:04:21;12.3;65.7
78767;SHT31;68092;51.982;5.680;2023-02-23T02:06:53;12.3;65.7
78767;SHT31;68092;51.982;5.680;2023-02-23T02:09:24;12.3;65.6
78767;SHT31;68092;51.982;5.680;2023-02-23T02:11:54;12.3;65.7
78767;SHT31;68092;51.982;5.680;2023-02-23T02:14:27;12.3;65.6
78767;SHT31;68092;51.982;5.680;2023-02-23T02:17:09;12.3;65.7
78767;SHT31;68092;51.982;5.680;2023-02-23T02:22:30;12.3;65.7
78767;SHT31;68092;51.982;5.680;2023-02-23T02:25:50;12.3;65.7
78767;SHT31;68092;51.982;5.680;2023-02-23T02:28:33;12.3;65.7
78767;SHT31;68092;51.982;5.680;2023-02-23T02:32:14;12.3;65.6
78767;SHT31;68092;51.982;5.680;2023-02-23T02:37:15;12.3;65.6
78767;SHT31;68092;51.982;5.680;2023-02-23T02:39:56;12.3;65.7
78767;SHT31;68092;51.982;5.680;2023-02-23T02:42:41;12.3;65.7
78767;SHT31;68092;51.982;5.680;2023-02-23T02:45:25;12.3;65.6
78767;SHT31;68092;51.982;5.680;2023-02-23T02:48:05;12.3;65.7
78767;SHT31;68092;51.982;5.680;2023-02-23T02:50:42;12.3;65.6
78767;SHT31;68092;51.982;5.680;2023-02-23T02:53:22;12.3;65.8
78767;SHT31;68092;51.982;5.680;2023-02-23T02:55:58;12.3;65.7
78767;SHT31;68092;51.982;5.680;2023-02-23T02:58:32;12.3;65.6
78767;SHT31;68092;51.982;5.680;2023-02-23T03:01:11;12.3;65.4
78767;SHT31;68092;51.982;5.680;2023-02-23T03:03:59;12.3;65.6
78767;SHT31;68092;51.982;5.680;2023-02-23T03:06:54;12.3;65.6
78767;SHT31;68092;51.982;5.680;2023-02-23T03:09:52;12.3;65.6
78767;SHT31;68092;51.982;5.680;2023-02-23T03:12:48;12.3;65.7
78767;SHT31;68092;51.982;5.680;2023-02-23T03:15:46;12.2;65.8
78767;SHT31;68092;51.982;5.680;2023-02-23T03:18:48;12.2;65.7
78767;SHT31;68092;51.982;5.680;2023-02-23T03:21:46;12.2;65.8
78767;SHT31;68092;51.982;5.680;2023-02-23T03:24:38;12.2;65.8
78767;SHT31;68092;51.982;5.680;2023-02-23T03:27:39;12.2;65.7
78767;SHT31;68092;51.982;5.680;2023-02-23T03:30:38;12.2;65.8
78767;SHT31;68092;51.982;5.680;2023-02-23T03:33:31;12.2;65.8
78767;SHT31;68092;51.982;5.680;2023-02-23T03:36:28;12.2;65.8
78767;SHT31;68092;51.982;5.680;2023-02-23T03:39:24;12.2;65.9
78767;SHT31;68092;51.982;5.680;2023-02-23T03:42:16;12.2;65.9
78767;SHT31;68092;51.982;5.680;2023-02-23T03:45:13;12.2;65.9
78767;SHT31;68092;51.982;5.680;2023-02-23T03:48:04;12.2;65.9
78767;SHT31;68092;51.982;5.680;2023-02-23T03:50:54;12.2;65.9
78767;SHT31;68092;51.982;5.680;2023-02-23T03:53:46;12.2;66.0
78767;SHT31;68092;51.982;5.680;2023-02-23T03:56:37;12.2;66.0
78767;SHT31;68092;51.982;5.680;2023-02-23T03:59:27;12.1;66.1
78767;SHT31;68092;51.982;5.680;2023-02-23T04:02:16;12.1;66.1
78767;SHT31;68092;51.982;5.680;2023-02-23T04:05:08;12.1;66.3
78767;SHT31;68092;51.982;5.680;2023-02-23T04:07:58;12.1;66.3
78767;SHT31;68092;51.982;5.680;2023-02-23T04:10:52;12.1;66.4
78767;SHT31;68092;51.982;5.680;2023-02-23T04:13:45;12.1;66.5
78767;SHT31;68092;51.982;5.680;2023-02-23T04:16:15;12.1;66.5
78767;SHT31;68092;51.982;5.680;2023-02-23T04:18:44;12.1;66.5
78767;SHT31;68092;51.982;5.680;2023-02-23T04:21:16;12.1;66.6
78767;SHT31;68092;51.982;5.680;2023-02-23T04:23:46;12.1;66.6
78767;SHT31;68092;51.982;5.680;2023-02-23T04:26:16;12.1;66.6
78767;SHT31;68092;51.982;5.680;2023-02-23T04:28:45;12.1;66.7
78767;SHT31;68092;51.982;5.680;2023-02-23T04:31:15;12.1;66.5
78767;SHT31;68092;51.982;5.680;2023-02-23T04:33:45;12.1;66.7
78767;SHT31;68092;51.982;5.680;2023-02-23T04:36:14;12.1;66.6
78767;SHT31;68092;51.982;5.680;2023-02-23T04:38:44;12.0;66.8
78767;SHT31;68092;51.982;5.680;2023-02-23T04:41:14;12.0;66.8
78767;SHT31;68092;51.982;5.680;2023-02-23T04:43:43;12.0;66.7
78767;SHT31;68092;51.982;5.680;2023-02-23T04:46:13;12.0;66.8
78767;SHT31;68092;51.982;5.680;2023-02-23T04:48:43;12.0;67.0
78767;SHT31;68092;51.982;5.680;2023-02-23T04:51:12;12.0;66.9
78767;SHT31;68092;51.982;5.680;2023-02-23T04:53:42;12.0;66.9
78767;SHT31;68092;51.982;5.680;2023-02-23T04:56:12;12.0;67.0
78767;SHT31;68092;51.982;5.680;2023-02-23T04:58:42;12.0;67.1
78767;SHT31;68092;51.982;5.680;2023-02-23T05:01:11;12.0;67.0
78767;SHT31;68092;51.982;5.680;2023-02-23T05:03:41;12.0;66.7
78767;SHT31;68092;51.982;5.680;2023-02-23T05:06:11;12.0;66.8
78767;SHT31;68092;51.982;5.680;2023-02-23T05:08:41;12.0;66.8
78767;SHT31;68092;51.982;5.680;2023-02-23T05:11:11;12.0;66.7
78767;SHT31;68092;51.982;5.680;2023-02-23T05:13:42;12.0;66.5
78767;SHT31;68092;51.982;5.680;2023-02-23T05:16:13;12.0;66.6
78767;SHT31;68092;51.982;5.680;2023-02-23T05:18:43;12.0;66.5
78767;SHT31;68092;51.982;5.680;2023-02-23T05:21:13;12.0;66.4
78767;SHT31;68092;51.982;5.680;2023-02-23T05:23:45;12.0;66.4
78767;SHT31;68092;51.982;5.680;2023-02-23T05:26:15;12.0;66.5
78767;SHT31;68092;51.982;5.680;2023-02-23T05:28:45;12.0;66.4
78767;SHT31;68092;51.982;5.680;2023-02-23T05:31:15;12.0;66.5
78767;SHT31;68092;51.982;5.680;2023-02-23T05:33:46;12.0;66.3
78767;SHT31;68092;51.982;5.680;2023-02-23T05:36:17;12.0;66.4
78767;SHT31;68092;51.982;5.680;2023-02-23T05:38:48;12.0;66.4
78767;SHT31;68092;51.982;5.680;2023-02-23T05:41:21;12.0;66.4
78767;SHT31;68092;51.982;5.680;2023-02-23T05:43:53;12.0;66.4
78767;SHT31;68092;51.982;5.680;2023-02-23T05:46:24;12.0;66.4
78767;SHT31;68092;51.982;5.680;2023-02-23T05:48:57;12.0;66.3
78767;SHT31;68092;51.982;5.680;2023-02-23T05:51:30;11.9;66.3
78767;SHT31;68092;51.982;5.680;2023-02-23T05:54:01;11.9;66.3
78767;SHT31;68092;51.982;5.680;2023-02-23T05:56:32;11.9;66.4
78767;SHT31;68092;51.982;5.680;2023-02-23T05:59:03;11.9;66.5
78767;SHT31;68092;51.982;5.680;2023-02-23T06:01:32;11.9;66.5
78767;SHT31;68092;51.982;5.680;2023-02-23T06:04:02;11.9;66.4
78767;SHT31;68092;51.982;5.680;2023-02-23T06:06:32;11.9;66.7
78767;SHT31;68092;51.982;5.680;2023-02-23T06:09:02;11.9;66.7
78767;SHT31;68092;51.982;5.680;2023-02-23T06:11:32;11.9;66.8
78767;SHT31;68092;51.982;5.680;2023-02-23T06:14:01;11.9;66.9
78767;SHT31;68092;51.982;5.680;2023-02-23T06:16:31;11.9;67.1
78767;SHT31;68092;51.982;5.680;2023-02-23T06:19:01;11.9;67.0
78767;SHT31;68092;51.982;5.680;2023-02-23T06:21:31;11.9;67.1
78767;SHT31;68092;51.982;5.680;2023-02-23T06:24:01;11.9;67.0
78767;SHT31;68092;51.982;5.680;2023-02-23T06:26:31;11.8;67.2
78767;SHT31;68092;51.982;5.680;2023-02-23T06:29:02;11.8;67.3
78767;SHT31;68092;51.982;5.680;2023-02-23T06:31:31;11.8;67.5
78767;SHT31;68092;51.982;5.680;2023-02-23T06:34:01;11.8;67.5
78767;SHT31;68092;51.982;5.680;2023-02-23T06:36:30;11.8;67.5
78767;SHT31;68092;51.982;5.680;2023-02-23T06:39:03;11.8;67.5
78767;SHT31;68092;51.982;5.680;2023-02-23T06:41:33;11.8;67.5
78767;SHT31;68092;51.982;5.680;2023-02-23T06:44:03;11.8;67.6
78767;SHT31;68092;51.982;5.680;2023-02-23T06:46:34;11.8;67.7
78767;SHT31;68092;51.982;5.680;2023-02-23T06:49:04;11.8;67.7
78767;SHT31;68092;51.982;5.680;2023-02-23T06:51:35;11.8;67.7
78767;SHT31;68092;51.982;5.680;2023-02-23T06:54:05;11.8;67.9
78767;SHT31;68092;51.982;5.680;2023-02-23T06:56:35;11.8;67.7
78767;SHT31;68092;51.982;5.680;2023-02-23T06:59:05;11.8;67.8
78767;SHT31;68092;51.982;5.680;2023-02-23T07:01:34;11.8;67.8
78767;SHT31;68092;51.982;5.680;2023-02-23T07:04:07;11.8;67.8
78767;SHT31;68092;51.982;5.680;2023-02-23T07:06:37;11.8;67.8
78767;SHT31;68092;51.982;5.680;2023-02-23T07:09:08;11.8;67.9
78767;SHT31;68092;51.982;5.680;2023-02-23T07:11:38;11.8;67.7
78767;SHT31;68092;51.982;5.680;2023-02-23T07:14:10;11.8;67.7
78767;SHT31;68092;51.982;5.680;2023-02-23T07:16:40;11.8;68.0
78767;SHT31;68092;51.982;5.680;2023-02-23T07:19:10;11.8;68.0
78767;SHT31;68092;51.982;5.680;2023-02-23T07:21:39;11.9;67.9
78767;SHT31;68092;51.982;5.680;2023-02-23T07:24:09;11.9;67.9
78767;SHT31;68092;51.982;5.680;2023-02-23T07:26:39;11.9;67.8
78767;SHT31;68092;51.982;5.680;2023-02-23T07:29:14;11.9;68.0
78767;SHT31;68092;51.982;5.680;2023-02-23T07:31:44;11.9;67.8
78767;SHT31;68092;51.982;5.680;2023-02-23T07:34:16;11.9;68.0
78767;SHT31;68092;51.982;5.680;2023-02-23T07:36:46;11.9;68.0
78767;SHT31;68092;51.982;5.680;2023-02-23T07:39:15;11.9;68.0
78767;SHT31;68092;51.982;5.680;2023-02-23T07:41:45;11.9;68.0
78767;SHT31;68092;51.982;5.680;2023-02-23T07:44:14;11.9;67.9
78767;SHT31;68092;51.982;5.680;2023-02-23T07:46:44;11.9;67.9
78767;SHT31;68092;51.982;5.680;2023-02-23T07:49:14;11.9;67.9
78767;SHT31;68092;51.982;5.680;2023-02-23T07:51:44;11.9;67.8
78767;SHT31;68092;51.982;5.680;2023-02-23T07:54:14;12.0;67.9
78767;SHT31;68092;51.982;5.680;2023-02-23T07:56:44;12.0;67.9
78767;SHT31;68092;51.982;5.680;2023-02-23T07:59:13;12.0;68.0
78767;SHT31;68092;51.982;5.680;2023-02-23T08:01:44;12.0;68.0
78767;SHT31;68092;51.982;5.680;2023-02-23T08:04:13;12.0;68.1
78767;SHT31;68092;51.982;5.680;2023-02-23T08:06:43;12.0;68.0
78767;SHT31;68092;51.982;5.680;2023-02-23T08:09:13;12.0;68.3
78767;SHT31;68092;51.982;5.680;2023-02-23T08:11:42;12.0;68.3
78767;SHT31;68092;51.982;5.680;2023-02-23T08:14:12;12.0;68.5
78767;SHT31;68092;51.982;5.680;2023-02-23T08:16:42;12.0;68.6
78767;SHT31;68092;51.982;5.680;2023-02-23T08:19:12;12.0;68.7
78767;SHT31;68092;51.982;5.680;2023-02-23T08:21:41;12.1;68.6
78767;SHT31;68092;51.982;5.680;2023-02-23T08:24:11;12.1;68.7
78767;SHT31;68092;51.982;5.680;2023-02-23T08:26:42;12.1;68.8
78767;SHT31;68092;51.982;5.680;2023-02-23T08:29:12;12.1;68.9
78767;SHT31;68092;51.982;5.680;2023-02-23T08:31:41;12.1;69.0
78767;SHT31;68092;51.982;5.680;2023-02-23T08:34:12;12.1;68.9
78767;SHT31;68092;51.982;5.680;2023-02-23T08:36:41;12.1;68.7
78767;SHT31;68092;51.982;5.680;2023-02-23T08:39:12;12.1;68.8
78767;SHT31;68092;51.982;5.680;2023-02-23T08:41:41;12.1;68.7
78767;SHT31;68092;51.982;5.680;2023-02-23T08:44:11;12.2;68.8
78767;SHT31;68092;51.982;5.680;2023-02-23T08:46:41;12.2;68.8
78767;SHT31;68092;51.982;5.680;2023-02-23T08:49:11;12.2;68.5
78767;SHT31;68092;51.982;5.680;2023-02-23T08:51:41;12.2;68.7
78767;SHT31;68092;51.982;5.680;2023-02-23T08:54:13;12.2;68.6
78767;SHT31;68092;51.982;5.680;2023-02-23T08:56:48;12.2;68.7
78767;SHT31;68092;51.982;5.680;2023-02-23T08:59:17;12.2;68.7
78767;SHT31;68092;51.982;5.680;2023-02-23T09:01:47;12.3;68.9
78767;SHT31;68092;51.982;5.680;2023-02-23T09:04:16;12.3;68.6
78767;SHT31;68092;51.982;5.680;2023-02-23T09:06:48;12.3;68.3
78767;SHT31;68092;51.982;5.680;2023-02-23T09:09:18;12.3;69.3
78767;SHT31;68092;51.982;5.680;2023-02-23T09:11:49;12.3;67.5
78767;SHT31;68092;51.982;5.680;2023-02-23T09:14:20;12.3;67.8
78767;SHT31;68092;51.982;5.680;2023-02-23T09:16:50;12.3;67.9
78767;SHT31;68092;51.982;5.680;2023-02-23T09:19:20;12.4;67.9
78767;SHT31;68092;51.982;5.680;2023-02-23T09:21:49;12.4;68.1
78767;SHT31;68092;51.982;5.680;2023-02-23T09:24:19;12.4;67.9
78767;SHT31;68092;51.982;5.680;2023-02-23T09:26:49;12.4;67.8
78767;SHT31;68092;51.982;5.680;2023-02-23T09:29:22;12.4;67.7
78767;SHT31;68092;51.982;5.680;2023-02-23T09:31:52;12.5;67.7
78767;SHT31;68092;51.982;5.680;2023-02-23T09:34:24;12.5;67.4
78767;SHT31;68092;51.982;5.680;2023-02-23T09:36:57;12.5;67.5
78767;SHT31;68092;51.982;5.680;2023-02-23T09:39:26;12.5;67.6
78767;SHT31;68092;51.982;5.680;2023-02-23T09:42:27;12.5;67.8
78767;SHT31;68092;51.982;5.680;2023-02-23T09:45:08;12.6;67.7
78767;SHT31;68092;51.982;5.680;2023-02-23T09:47:53;12.6;67.5
78767;SHT31;68092;51.982;5.680;2023-02-23T09:50:27;12.6;67.5
78767;SHT31;68092;51.982;5.680;2023-02-23T09:53:00;12.7;67.4
78767;SHT31;68092;51.982;5.680;2023-02-23T09:55:31;12.7;67.2
78767;SHT31;68092;51.982;5.680;2023-02-23T09:58:17;12.7;66.8
78767;SHT31;68092;51.982;5.680;2023-02-23T10:01:01;12.7;66.7
78767;SHT31;68092;51.982;5.680;2023-02-23T10:03:38;12.7;66.8
78767;SHT31;68092;51.982;5.680;2023-02-23T10:06:17;12.7;66.5
78767;SHT31;68092;51.982;5.680;2023-02-23T10:09:01;12.7;66.6
78767;SHT31;68092;51.982;5.680;2023-02-23T10:11:41;12.8;66.3
78767;SHT31;68092;51.982;5.680;2023-02-23T10:14:37;12.8;66.3
78767;SHT31;68092;51.982;5.680;2023-02-23T10:17:19;12.8;66.4
78767;SHT31;68092;51.982;5.680;2023-02-23T10:19:57;12.8;66.3
78767;SHT31;68092;51.982;5.680;2023-02-23T10:22:32;12.8;66.4
78767;SHT31;68092;51.982;5.680;2023-02-23T10:25:06;12.8;66.4
78767;SHT31;68092;51.982;5.680;2023-02-23T10:27:42;12.8;66.4
78767;SHT31;68092;51.982;5.680;2023-02-23T10:30:20;12.8;66.6
78767;SHT31;68092;51.982;5.680;2023-02-23T10:33:00;12.9;66.8
78767;SHT31;68092;51.982;5.680;2023-02-23T10:35:30;12.9;66.4
78767;SHT31;68092;51.982;5.680;2023-02-23T10:38:03;12.9;65.7
78767;SHT31;68092;51.982;5.680;2023-02-23T10:40:33;12.9;66.1
78767;SHT31;68092;51.982;5.680;2023-02-23T10:43:03;12.9;66.3
78767;SHT31;68092;51.982;5.680;2023-02-23T10:45:42;12.9;65.9
78767;SHT31;68092;51.982;5.680;2023-02-23T10:48:17;12.9;66.3
78767;SHT31;68092;51.982;5.680;2023-02-23T10:50:49;12.9;66.1
78767;SHT31;68092;51.982;5.680;2023-02-23T10:53:22;12.9;66.2
78767;SHT31;68092;51.982;5.680;2023-02-23T10:56:04;12.9;66.1
78767;SHT31;68092;51.982;5.680;2023-02-23T10:58:43;12.9;66.5
78767;SHT31;68092;51.982;5.680;2023-02-23T11:01:15;12.9;66.3
78767;SHT31;68092;51.982;5.680;2023-02-23T11:03:48;12.9;66.7
78767;SHT31;68092;51.982;5.680;2023-02-23T11:06:31;12.9;66.7
78767;SHT31;68092;51.982;5.680;2023-02-23T11:09:20;12.9;66.6
78767;SHT31;68092;51.982;5.680;2023-02-23T11:11:58;13.0;66.6
78767;SHT31;68092;51.982;5.680;2023-02-23T11:14:30;13.0;66.4
78767;SHT31;68092;51.982;5.680;2023-02-23T11:17:00;13.0;66.3
78767;SHT31;68092;51.982;5.680;2023-02-23T11:19:33;13.0;66.2
78767;SHT31;68092;51.982;5.680;2023-02-23T11:22:05;13.0;66.5
78767;SHT31;68092;51.982;5.680;2023-02-23T11:24:40;13.1;66.4
78767;SHT31;68092;51.982;5.680;2023-02-23T11:27:19;13.1;66.5
78767;SHT31;68092;51.982;5.680;2023-02-23T11:29:57;13.2;66.4
78767;SHT31;68092;51.982;5.680;2023-02-23T11:32:33;13.2;66.1
78767;SHT31;68092;51.982;5.680;2023-02-23T11:35:28;13.3;65.7
78767;SHT31;68092;51.982;5.680;2023-02-23T11:37:58;13.3;65.1
78767;SHT31;68092;51.982;5.680;2023-02-23T11:40:30;13.3;65.2
78767;SHT31;68092;51.982;5.680;2023-02-23T11:43:08;13.3;64.6
78767;SHT31;68092;51.982;5.680;2023-02-23T11:45:49;13.3;64.5
78767;SHT31;68092;51.982;5.680;2023-02-23T11:48:24;13.3;64.3
78767;SHT31;68092;51.982;5.680;2023-02-23T11:50:56;13.3;64.4
78767;SHT31;68092;51.982;5.680;2023-02-23T11:53:36;13.4;63.8
78767;SHT31;68092;51.982;5.680;2023-02-23T11:56:07;13.4;63.5
78767;SHT31;68092;51.982;5.680;2023-02-23T11:58:41;13.4;63.7
78767;SHT31;68092;51.982;5.680;2023-02-23T12:01:14;13.3;63.8
78767;SHT31;68092;51.982;5.680;2023-02-23T12:03:49;13.3;64.0
78767;SHT31;68092;51.982;5.680;2023-02-23T12:06:29;13.3;64.7
78767;SHT31;68092;51.982;5.680;2023-02-23T12:09:11;13.3;64.6
78767;SHT31;68092;51.982;5.680;2023-02-23T12:11:50;13.4;64.1
78767;SHT31;68092;51.982;5.680;2023-02-23T12:14:29;13.4;64.0
78767;SHT31;68092;51.982;5.680;2023-02-23T12:17:05;13.4;63.4
78767;SHT31;68092;51.982;5.680;2023-02-23T12:19:42;13.4;64.0
78767;SHT31;68092;51.982;5.680;2023-02-23T12:22:17;13.4;64.0
78767;SHT31;68092;51.982;5.680;2023-02-23T12:24:52;13.4;63.5
78767;SHT31;68092;51.982;5.680;2023-02-23T12:27:29;13.4;63.7
78767;SHT31;68092;51.982;5.680;2023-02-23T12:30:15;13.4;63.7
78767;SHT31;68092;51.982;5.680;2023-02-23T12:32:58;13.4;63.8
78767;SHT31;68092;51.982;5.680;2023-02-23T12:35:39;13.4;63.5
78767;SHT31;68092;51.982;5.680;2023-02-23T12:38:18;13.4;63.5
78767;SHT31;68092;51.982;5.680;2023-02-23T12:41:00;13.5;63.7
78767;SHT31;68092;51.982;5.680;2023-02-23T12:43:38;13.5;62.9
78767;SHT31;68092;51.982;5.680;2023-02-23T12:46:14;13.5;62.7
78767;SHT31;68092;51.982;5.680;2023-02-23T12:49:02;13.5;62.9
78767;SHT31;68092;51.982;5.680;2023-02-23T12:51:35;13.5;62.2
78767;SHT31;68092;51.982;5.680;2023-02-23T12:54:16;13.5;61.5
78767;SHT31;68092;51.982;5.680;2023-02-23T12:57:04;13.5;61.0
78767;SHT31;68092;51.982;5.680;2023-02-23T12:59:46;13.4;61.3
78767;SHT31;68092;51.982;5.680;2023-02-23T13:02:25;13.4;61.5
78767;SHT31;68092;51.982;5.680;2023-02-23T13:05:21;13.3;61.2
78767;SHT31;68092;51.982;5.680;2023-02-23T13:08:01;13.3;61.8
78767;SHT31;68092;51.982;5.680;2023-02-23T13:10:41;13.3;61.9
78767;SHT31;68092;51.982;5.680;2023-02-23T13:13:24;13.2;62.0
78767;SHT31;68092;51.982;5.680;2023-02-23T13:16:00;13.2;61.3
78767;SHT31;68092;51.982;5.680;2023-02-23T13:18:37;13.2;61.7
78767;SHT31;68092;51.982;5.680;2023-02-23T13:21:18;13.1;61.4
78767;SHT31;68092;51.982;5.680;2023-02-23T13:24:00;13.1;62.3
78767;SHT31;68092;51.982;5.680;2023-02-23T13:26:38;13.1;62.5
78767;SHT31;68092;51.982;5.680;2023-02-23T13:29:23;13.0;62.6
78767;SHT31;68092;51.982;5.680;2023-02-23T13:31:57;13.0;62.9
78767;SHT31;68092;51.982;5.680;2023-02-23T13:34:33;13.0;63.3
78767;SHT31;68092;51.982;5.680;2023-02-23T13:37:06;13.0;63.2
78767;SHT31;68092;51.982;5.680;2023-02-23T13:39:44;13.0;63.4
78767;SHT31;68092;51.982;5.680;2023-02-23T13:42:30;13.0;63.6
78767;SHT31;68092;51.982;5.680;2023-02-23T13:45:54;13.0;63.0
78767;SHT31;68092;51.982;5.680;2023-02-23T13:48:30;13.0;62.9
78767;SHT31;68092;51.982;5.680;2023-02-23T13:51:10;13.0;63.5
78767;SHT31;68092;51.982;5.680;2023-02-23T13:53:44;13.1;63.0
78767;SHT31;68092;51.982;5.680;2023-02-23T13:56:22;13.1;62.1
78767;SHT31;68092;51.982;5.680;2023-02-23T13:58:57;13.1;62.7
78767;SHT31;68092;51.982;5.680;2023-02-23T14:01:35;13.1;63.1
78767;SHT31;68092;51.982;5.680;2023-02-23T14:04:14;13.2;62.8
78767;SHT31;68092;51.982;5.680;2023-02-23T14:06:53;13.2;62.5
78767;SHT31;68092;51.982;5.680;2023-02-23T14:09:30;13.2;62.0
78767;SHT31;68092;51.982;5.680;2023-02-23T14:12:14;13.3;61.1
78767;SHT31;68092;51.982;5.680;2023-02-23T14:14:47;13.3;60.2
78767;SHT31;68092;51.982;5.680;2023-02-23T14:19:36;13.3;60.2
78767;SHT31;68092;51.982;5.680;2023-02-23T14:22:10;13.3;59.9
78767;SHT31;68092;51.982;5.680;2023-02-23T14:24:41;13.3;60.0
78767;SHT31;68092;51.982;5.680;2023-02-23T14:27:20;13.3;60.2
78767;SHT31;68092;51.982;5.680;2023-02-23T14:30:14;13.3;60.2
78767;SHT31;68092;51.982;5.680;2023-02-23T14:32:47;13.3;60.0
78767;SHT31;68092;51.982;5.680;2023-02-23T14:35:37;13.3;59.6
78767;SHT31;68092;51.982;5.680;2023-02-23T14:38:16;13.2;59.9
78767;SHT31;68092;51.982;5.680;2023-02-23T14:40:53;13.2;60.2
78767;SHT31;68092;51.982;5.680;2023-02-23T14:43:42;13.2;60.0
78767;SHT31;68092;51.982;5.680;2023-02-23T14:46:18;13.2;60.2
78767;SHT31;68092;51.982;5.680;2023-02-23T14:49:01;13.2;60.9
78767;SHT31;68092;51.982;5.680;2023-02-23T14:51:43;13.2;60.8
78767;SHT31;68092;51.982;5.680;2023-02-23T14:54:23;13.2;61.3
78767;SHT31;68092;51.982;5.680;2023-02-23T14:56:55;13.2;60.7
78767;SHT31;68092;51.982;5.680;2023-02-23T14:59:28;13.2;61.4
78767;SHT31;68092;51.982;5.680;2023-02-23T15:02:06;13.2;60.6
78767;SHT31;68092;51.982;5.680;2023-02-23T15:04:37;13.2;61.3
78767;SHT31;68092;51.982;5.680;2023-02-23T15:07:15;13.2;60.6
78767;SHT31;68092;51.982;5.680;2023-02-23T15:09:53;13.2;60.5
78767;SHT31;68092;51.982;5.680;2023-02-23T15:12:27;13.2;60.8
78767;SHT31;68092;51.982;5.680;2023-02-23T15:15:00;13.1;61.2
78767;SHT31;68092;51.982;5.680;2023-02-23T15:17:32;13.1;61.2
78767;SHT31;68092;51.982;5.680;2023-02-23T15:20:05;13.1;61.0
78767;SHT31;68092;51.982;5.680;2023-02-23T15:22:38;13.1;61.1
78767;SHT31;68092;51.982;5.680;2023-02-23T15:25:20;13.1;61.6
78767;SHT31;68092;51.982;5.680;2023-02-23T15:27:50;13.1;61.3
78767;SHT31;68092;51.982;5.680;2023-02-23T15:30:26;13.1;61.9
78767;SHT31;68092;51.982;5.680;2023-02-23T15:33:02;13.1;62.2
78767;SHT31;68092;51.982;5.680;2023-02-23T15:35:35;13.1;61.5
78767;SHT31;68092;51.982;5.680;2023-02-23T15:38:10;13.0;61.7
78767;SHT31;68092;51.982;5.680;2023-02-23T15:40:43;13.0;62.2
78767;SHT31;68092;51.982;5.680;2023-02-23T15:43:13;13.0;62.3
78767;SHT31;68092;51.982;5.680;2023-02-23T15:45:47;13.0;62.5
78767;SHT31;68092;51.982;5.680;2023-02-23T15:48:21;13.0;62.1
78767;SHT31;68092;51.982;5.680;2023-02-23T15:50:54;13.0;62.4
78767;SHT31;68092;51.982;5.680;2023-02-23T15:53:29;13.0;62.3
78767;SHT31;68092;51.982;5.680;2023-02-23T15:56:02;13.0;62.5
78767;SHT31;68092;51.982;5.680;2023-02-23T15:58:40;13.0;62.0
78767;SHT31;68092;51.982;5.680;2023-02-23T16:01:20;13.0;61.5
78767;SHT31;68092;51.982;5.680;2023-02-23T16:03:59;13.0;62.0
78767;SHT31;68092;51.982;5.680;2023-02-23T16:06:52;13.0;61.6
78767;SHT31;68092;51.982;5.680;2023-02-23T16:09:28;12.9;61.6
78767;SHT31;68092;51.982;5.680;2023-02-23T16:12:02;12.9;61.8
78767;SHT31;68092;51.982;5.680;2023-02-23T16:14:44;12.9;61.6
78767;SHT31;68092;51.982;5.680;2023-02-23T16:17:22;12.9;62.1
78767;SHT31;68092;51.982;5.680;2023-02-23T16:19:56;12.9;62.0
78767;SHT31;68092;51.982;5.680;2023-02-23T16:22:27;12.8;61.7
78767;SHT31;68092;51.982;5.680;2023-02-23T16:25:01;12.8;62.0
78767;SHT31;68092;51.982;5.680;2023-02-23T16:27:31;12.8;62.3
78767;SHT31;68092;51.982;5.680;2023-02-23T16:30:19;12.8;62.5
78767;SHT31;68092;51.982;5.680;2023-02-23T16:33:04;12.8;62.3
78767;SHT31;68092;51.982;5.680;2023-02-23T16:35:36;12.8;62.5
78767;SHT31;68092;51.982;5.680;2023-02-23T16:38:13;12.8;62.9
78767;SHT31;68092;51.982;5.680;2023-02-23T16:40:43;12.8;63.2
78767;SHT31;68092;51.982;5.680;2023-02-23T16:43:15;12.8;63.2
78767;SHT31;68092;51.982;5.680;2023-02-23T16:45:45;12.7;63.5
78767;SHT31;68092;51.982;5.680;2023-02-23T16:48:17;12.7;63.7
78767;SHT31;68092;51.982;5.680;2023-02-23T16:50:48;12.6;64.0
78767;SHT31;68092;51.982;5.680;2023-02-23T16:53:21;12.6;64.4
78767;SHT31;68092;51.982;5.680;2023-02-23T16:55:54;12.6;64.5
78767;SHT31;68092;51.982;5.680;2023-02-23T16:58:27;12.6;64.8
78767;SHT31;68092;51.982;5.680;2023-02-23T17:00:59;12.6;64.7
78767;SHT31;68092;51.982;5.680;2023-02-23T17:03:28;12.5;64.7
78767;SHT31;68092;51.982;5.680;2023-02-23T17:05:59;12.5;64.5